Tiro, Ohio
Current Conditions -  °F | °C
As of 12:52 AM on Tuesday 27 Jan 2015 (Local Time) from KMFD Reporting Station
Overcast Overcast  
Wind Chill:   Ceiling: 1900
Heat Index: 13°   Visibility: 10mi
Dew Point: 10°   Wind: 5mph
Humidity: 88%   Direction: 280°W
Pressure: 29.89"   Gusts: NA
Location:  40.91°N, 82.77°W
Report Text: KMFD 270552Z AUTO 28004KT 10SM OVC019 M11/M12 A2989 RMK AO2 SLP144 T11061122 11094 21122 58003
Loading
Personal Weather Stations






























Interactive Weather Map New forecast layout! Learn more

10-Day Weather Forecast

Advertisements
Track Severe Weather on mobile